sensor_id;sensor_type;location;lat;lon;timestamp;P1;durP1;ratioP1;P2;durP2;ratioP2
13408;SDS011;6775;49.574;11.170;2023-08-01T00:00:27;4.87;;;3.43;;
13408;SDS011;6775;49.574;11.170;2023-08-01T00:02:55;7.37;;;3.90;;
13408;SDS011;6775;49.574;11.170;2023-08-01T00:05:25;5.43;;;3.47;;
13408;SDS011;6775;49.574;11.170;2023-08-01T00:07:53;5.27;;;3.33;;
13408;SDS011;6775;49.574;11.170;2023-08-01T00:10:21;5.17;;;3.40;;
13408;SDS011;6775;49.574;11.170;2023-08-01T00:12:49;6.43;;;2.97;;
13408;SDS011;6775;49.574;11.170;2023-08-01T00:15:17;5.03;;;3.70;;
13408;SDS011;6775;49.574;11.170;2023-08-01T00:17:45;4.40;;;3.50;;
13408;SDS011;6775;49.574;11.170;2023-08-01T00:20:13;5.13;;;3.20;;
13408;SDS011;6775;49.574;11.170;2023-08-01T00:22:43;4.03;;;3.33;;
13408;SDS011;6775;49.574;11.170;2023-08-01T00:25:11;5.37;;;3.73;;
13408;SDS011;6775;49.574;11.170;2023-08-01T00:27:39;5.73;;;3.03;;
13408;SDS011;6775;49.574;11.170;2023-08-01T00:30:07;4.43;;;3.47;;
13408;SDS011;6775;49.574;11.170;2023-08-01T00:32:36;5.77;;;3.17;;
13408;SDS011;6775;49.574;11.170;2023-08-01T00:35:05;4.60;;;3.10;;
13408;SDS011;6775;49.574;11.170;2023-08-01T00:37:34;5.30;;;3.40;;
13408;SDS011;6775;49.574;11.170;2023-08-01T00:40:04;5.13;;;3.43;;
13408;SDS011;6775;49.574;11.170;2023-08-01T00:42:35;4.87;;;3.30;;
13408;SDS011;6775;49.574;11.170;2023-08-01T00:45:04;5.97;;;3.37;;
13408;SDS011;6775;49.574;11.170;2023-08-01T00:47:34;5.57;;;3.30;;
13408;SDS011;6775;49.574;11.170;2023-08-01T00:50:02;6.13;;;3.50;;
13408;SDS011;6775;49.574;11.170;2023-08-01T00:52:31;5.80;;;3.10;;
13408;SDS011;6775;49.574;11.170;2023-08-01T00:54:59;6.70;;;3.27;;
13408;SDS011;6775;49.574;11.170;2023-08-01T00:57:28;5.30;;;3.90;;
13408;SDS011;6775;49.574;11.170;2023-08-01T00:59:57;7.07;;;4.40;;
13408;SDS011;6775;49.574;11.170;2023-08-01T01:02:25;4.23;;;3.00;;
13408;SDS011;6775;49.574;11.170;2023-08-01T01:04:53;5.13;;;3.67;;
13408;SDS011;6775;49.574;11.170;2023-08-01T01:07:21;5.03;;;3.17;;
13408;SDS011;6775;49.574;11.170;2023-08-01T01:09:51;3.83;;;3.30;;
13408;SDS011;6775;49.574;11.170;2023-08-01T01:12:19;5.30;;;2.83;;
13408;SDS011;6775;49.574;11.170;2023-08-01T01:14:48;3.97;;;3.20;;
13408;SDS011;6775;49.574;11.170;2023-08-01T01:17:16;5.37;;;3.40;;
13408;SDS011;6775;49.574;11.170;2023-08-01T01:19:44;4.03;;;3.13;;
13408;SDS011;6775;49.574;11.170;2023-08-01T01:22:14;3.60;;;3.10;;
13408;SDS011;6775;49.574;11.170;2023-08-01T01:24:44;4.93;;;3.20;;
13408;SDS011;6775;49.574;11.170;2023-08-01T01:27:15;7.83;;;3.77;;
13408;SDS011;6775;49.574;11.170;2023-08-01T01:29:44;4.43;;;3.47;;
13408;SDS011;6775;49.574;11.170;2023-08-01T01:32:14;3.43;;;3.03;;
13408;SDS011;6775;49.574;11.170;2023-08-01T01:34:44;4.00;;;3.03;;
13408;SDS011;6775;49.574;11.170;2023-08-01T01:37:13;5.23;;;4.03;;
13408;SDS011;6775;49.574;11.170;2023-08-01T01:39:41;4.27;;;3.20;;
13408;SDS011;6775;49.574;11.170;2023-08-01T01:42:09;6.97;;;3.60;;
13408;SDS011;6775;49.574;11.170;2023-08-01T01:44:39;5.77;;;3.37;;
13408;SDS011;6775;49.574;11.170;2023-08-01T01:47:07;5.67;;;3.23;;
13408;SDS011;6775;49.574;11.170;2023-08-01T01:49:35;5.10;;;3.47;;
13408;SDS011;6775;49.574;11.170;2023-08-01T01:52:03;5.97;;;3.87;;
13408;SDS011;6775;49.574;11.170;2023-08-01T01:54:33;4.67;;;3.53;;
13408;SDS011;6775;49.574;11.170;2023-08-01T01:57:01;4.67;;;3.30;;
13408;SDS011;6775;49.574;11.170;2023-08-01T01:59:29;6.73;;;3.47;;
13408;SDS011;6775;49.574;11.170;2023-08-01T02:01:57;6.77;;;3.70;;
13408;SDS011;6775;49.574;11.170;2023-08-01T02:04:26;4.20;;;3.77;;
13408;SDS011;6775;49.574;11.170;2023-08-01T02:06:54;4.17;;;3.47;;
13408;SDS011;6775;49.574;11.170;2023-08-01T02:09:22;5.87;;;3.67;;
13408;SDS011;6775;49.574;11.170;2023-08-01T02:11:51;4.50;;;3.40;;
13408;SDS011;6775;49.574;11.170;2023-08-01T02:14:19;4.20;;;3.27;;
13408;SDS011;6775;49.574;11.170;2023-08-01T02:16:47;6.27;;;3.43;;
13408;SDS011;6775;49.574;11.170;2023-08-01T02:19:15;3.87;;;3.10;;
13408;SDS011;6775;49.574;11.170;2023-08-01T02:21:43;7.17;;;3.63;;
13408;SDS011;6775;49.574;11.170;2023-08-01T02:24:11;4.83;;;3.10;;
13408;SDS011;6775;49.574;11.170;2023-08-01T02:26:39;4.80;;;3.40;;
13408;SDS011;6775;49.574;11.170;2023-08-01T02:29:09;5.10;;;3.37;;
13408;SDS011;6775;49.574;11.170;2023-08-01T02:31:37;6.50;;;3.60;;
13408;SDS011;6775;49.574;11.170;2023-08-01T02:34:05;5.20;;;3.20;;
13408;SDS011;6775;49.574;11.170;2023-08-01T02:36:33;6.63;;;3.80;;
13408;SDS011;6775;49.574;11.170;2023-08-01T02:39:01;4.13;;;3.40;;
13408;SDS011;6775;49.574;11.170;2023-08-01T02:41:29;6.37;;;3.70;;
13408;SDS011;6775;49.574;11.170;2023-08-01T02:43:57;5.17;;;3.47;;
13408;SDS011;6775;49.574;11.170;2023-08-01T02:46:27;6.20;;;3.70;;
13408;SDS011;6775;49.574;11.170;2023-08-01T02:48:55;6.30;;;3.70;;
13408;SDS011;6775;49.574;11.170;2023-08-01T02:51:23;5.63;;;3.03;;
13408;SDS011;6775;49.574;11.170;2023-08-01T02:53:51;5.40;;;3.23;;
13408;SDS011;6775;49.574;11.170;2023-08-01T02:56:19;6.77;;;3.80;;
13408;SDS011;6775;49.574;11.170;2023-08-01T02:58:47;4.73;;;2.97;;
13408;SDS011;6775;49.574;11.170;2023-08-01T03:01:18;8.27;;;3.30;;
13408;SDS011;6775;49.574;11.170;2023-08-01T03:03:47;5.37;;;3.50;;
13408;SDS011;6775;49.574;11.170;2023-08-01T03:06:15;7.10;;;3.40;;
13408;SDS011;6775;49.574;11.170;2023-08-01T03:08:44;4.20;;;3.43;;
13408;SDS011;6775;49.574;11.170;2023-08-01T03:11:12;4.27;;;3.20;;
13408;SDS011;6775;49.574;11.170;2023-08-01T03:13:40;4.53;;;3.10;;
13408;SDS011;6775;49.574;11.170;2023-08-01T03:16:08;5.03;;;3.07;;
13408;SDS011;6775;49.574;11.170;2023-08-01T03:18:36;5.60;;;3.07;;
13408;SDS011;6775;49.574;11.170;2023-08-01T03:21:06;4.67;;;3.23;;
13408;SDS011;6775;49.574;11.170;2023-08-01T03:23:34;4.43;;;3.20;;
13408;SDS011;6775;49.574;11.170;2023-08-01T03:26:04;6.27;;;3.63;;
13408;SDS011;6775;49.574;11.170;2023-08-01T03:28:32;6.50;;;3.63;;
13408;SDS011;6775;49.574;11.170;2023-08-01T03:31:00;5.00;;;3.60;;
13408;SDS011;6775;49.574;11.170;2023-08-01T03:33:29;6.00;;;3.57;;
13408;SDS011;6775;49.574;11.170;2023-08-01T03:35:57;4.70;;;3.57;;
13408;SDS011;6775;49.574;11.170;2023-08-01T03:38:26;5.67;;;3.30;;
13408;SDS011;6775;49.574;11.170;2023-08-01T03:40:54;6.47;;;3.70;;
13408;SDS011;6775;49.574;11.170;2023-08-01T03:43:22;6.37;;;3.27;;
13408;SDS011;6775;49.574;11.170;2023-08-01T03:45:51;6.37;;;3.50;;
13408;SDS011;6775;49.574;11.170;2023-08-01T03:48:19;6.13;;;3.33;;
13408;SDS011;6775;49.574;11.170;2023-08-01T03:50:47;7.67;;;3.60;;
13408;SDS011;6775;49.574;11.170;2023-08-01T03:53:15;6.30;;;4.10;;
13408;SDS011;6775;49.574;11.170;2023-08-01T03:55:44;7.67;;;4.13;;
13408;SDS011;6775;49.574;11.170;2023-08-01T03:58:15;3.93;;;3.53;;
13408;SDS011;6775;49.574;11.170;2023-08-01T04:00:43;6.37;;;3.43;;
13408;SDS011;6775;49.574;11.170;2023-08-01T04:03:11;7.97;;;3.80;;
13408;SDS011;6775;49.574;11.170;2023-08-01T04:05:40;5.87;;;3.93;;
13408;SDS011;6775;49.574;11.170;2023-08-01T04:08:08;9.10;;;4.57;;
13408;SDS011;6775;49.574;11.170;2023-08-01T04:10:36;6.57;;;4.17;;
13408;SDS011;6775;49.574;11.170;2023-08-01T04:13:05;4.97;;;3.73;;
13408;SDS011;6775;49.574;11.170;2023-08-01T04:15:33;8.33;;;5.60;;
13408;SDS011;6775;49.574;11.170;2023-08-01T04:18:01;8.27;;;4.90;;
13408;SDS011;6775;49.574;11.170;2023-08-01T04:20:29;9.93;;;6.60;;
13408;SDS011;6775;49.574;11.170;2023-08-01T04:22:57;6.70;;;4.20;;
13408;SDS011;6775;49.574;11.170;2023-08-01T04:25:25;4.30;;;3.53;;
13408;SDS011;6775;49.574;11.170;2023-08-01T04:27:54;5.40;;;3.60;;
13408;SDS011;6775;49.574;11.170;2023-08-01T04:30:24;7.87;;;4.37;;
13408;SDS011;6775;49.574;11.170;2023-08-01T04:32:52;6.70;;;3.63;;
13408;SDS011;6775;49.574;11.170;2023-08-01T04:35:20;4.13;;;3.20;;
13408;SDS011;6775;49.574;11.170;2023-08-01T04:37:48;5.03;;;3.53;;
13408;SDS011;6775;49.574;11.170;2023-08-01T04:40:16;7.43;;;3.87;;
13408;SDS011;6775;49.574;11.170;2023-08-01T04:42:44;6.43;;;3.50;;
13408;SDS011;6775;49.574;11.170;2023-08-01T04:45:12;5.30;;;3.73;;
13408;SDS011;6775;49.574;11.170;2023-08-01T04:47:41;5.10;;;3.50;;
13408;SDS011;6775;49.574;11.170;2023-08-01T04:50:09;5.83;;;4.00;;
13408;SDS011;6775;49.574;11.170;2023-08-01T04:52:37;6.90;;;4.00;;
13408;SDS011;6775;49.574;11.170;2023-08-01T04:55:06;6.73;;;4.03;;
13408;SDS011;6775;49.574;11.170;2023-08-01T04:57:34;5.60;;;3.63;;
13408;SDS011;6775;49.574;11.170;2023-08-01T05:00:03;5.73;;;3.73;;
13408;SDS011;6775;49.574;11.170;2023-08-01T05:02:31;4.83;;;3.77;;
13408;SDS011;6775;49.574;11.170;2023-08-01T05:05:01;5.93;;;4.00;;
13408;SDS011;6775;49.574;11.170;2023-08-01T05:07:30;4.23;;;3.77;;
13408;SDS011;6775;49.574;11.170;2023-08-01T05:09:58;6.07;;;4.00;;
13408;SDS011;6775;49.574;11.170;2023-08-01T05:12:26;5.93;;;3.40;;
13408;SDS011;6775;49.574;11.170;2023-08-01T05:14:54;6.03;;;4.00;;
13408;SDS011;6775;49.574;11.170;2023-08-01T05:17:22;5.03;;;3.80;;
13408;SDS011;6775;49.574;11.170;2023-08-01T05:19:50;5.40;;;3.93;;
13408;SDS011;6775;49.574;11.170;2023-08-01T05:22:19;5.30;;;3.80;;
13408;SDS011;6775;49.574;11.170;2023-08-01T05:24:47;4.47;;;3.47;;
13408;SDS011;6775;49.574;11.170;2023-08-01T05:27:15;6.07;;;4.10;;
13408;SDS011;6775;49.574;11.170;2023-08-01T05:29:43;5.77;;;4.27;;
13408;SDS011;6775;49.574;11.170;2023-08-01T05:32:11;5.13;;;3.50;;
13408;SDS011;6775;49.574;11.170;2023-08-01T05:34:39;5.53;;;3.70;;
13408;SDS011;6775;49.574;11.170;2023-08-01T05:37:07;7.17;;;4.10;;
13408;SDS011;6775;49.574;11.170;2023-08-01T05:39:37;5.33;;;3.80;;
13408;SDS011;6775;49.574;11.170;2023-08-01T05:42:05;6.43;;;3.90;;
13408;SDS011;6775;49.574;11.170;2023-08-01T05:44:34;6.00;;;4.17;;
13408;SDS011;6775;49.574;11.170;2023-08-01T05:47:03;7.03;;;4.30;;
13408;SDS011;6775;49.574;11.170;2023-08-01T05:49:31;6.90;;;3.93;;
13408;SDS011;6775;49.574;11.170;2023-08-01T05:51:59;6.20;;;3.73;;
13408;SDS011;6775;49.574;11.170;2023-08-01T05:54:27;8.57;;;3.77;;
13408;SDS011;6775;49.574;11.170;2023-08-01T05:56:57;5.30;;;3.87;;
13408;SDS011;6775;49.574;11.170;2023-08-01T05:59:25;6.07;;;3.63;;
13408;SDS011;6775;49.574;11.170;2023-08-01T06:01:53;5.93;;;4.00;;
13408;SDS011;6775;49.574;11.170;2023-08-01T06:04:21;6.13;;;3.90;;
13408;SDS011;6775;49.574;11.170;2023-08-01T06:06:49;4.37;;;3.80;;
13408;SDS011;6775;49.574;11.170;2023-08-01T06:09:17;6.70;;;4.40;;
13408;SDS011;6775;49.574;11.170;2023-08-01T06:11:49;7.77;;;4.20;;
13408;SDS011;6775;49.574;11.170;2023-08-01T06:14:19;4.83;;;3.20;;
13408;SDS011;6775;49.574;11.170;2023-08-01T06:16:47;5.00;;;3.80;;
13408;SDS011;6775;49.574;11.170;2023-08-01T06:19:15;5.67;;;3.40;;
13408;SDS011;6775;49.574;11.170;2023-08-01T06:21:43;7.43;;;4.63;;
13408;SDS011;6775;49.574;11.170;2023-08-01T06:24:11;6.67;;;3.63;;
13408;SDS011;6775;49.574;11.170;2023-08-01T06:26:39;4.23;;;3.43;;
13408;SDS011;6775;49.574;11.170;2023-08-01T06:29:08;6.83;;;3.83;;
13408;SDS011;6775;49.574;11.170;2023-08-01T06:31:37;6.03;;;3.83;;
13408;SDS011;6775;49.574;11.170;2023-08-01T06:34:05;6.30;;;3.90;;
13408;SDS011;6775;49.574;11.170;2023-08-01T06:36:33;6.27;;;4.07;;
13408;SDS011;6775;49.574;11.170;2023-08-01T06:39:01;7.17;;;3.57;;
13408;SDS011;6775;49.574;11.170;2023-08-01T06:41:30;5.63;;;4.10;;
13408;SDS011;6775;49.574;11.170;2023-08-01T06:43:58;5.00;;;3.40;;
13408;SDS011;6775;49.574;11.170;2023-08-01T06:46:26;6.43;;;4.10;;
13408;SDS011;6775;49.574;11.170;2023-08-01T06:48:56;4.77;;;3.70;;
13408;SDS011;6775;49.574;11.170;2023-08-01T06:51:24;7.87;;;4.30;;
13408;SDS011;6775;49.574;11.170;2023-08-01T06:53:52;5.33;;;4.00;;
13408;SDS011;6775;49.574;11.170;2023-08-01T06:56:20;5.60;;;4.20;;
13408;SDS011;6775;49.574;11.170;2023-08-01T06:58:48;7.47;;;4.33;;
13408;SDS011;6775;49.574;11.170;2023-08-01T07:01:16;5.67;;;3.93;;
13408;SDS011;6775;49.574;11.170;2023-08-01T07:03:44;5.93;;;4.00;;
13408;SDS011;6775;49.574;11.170;2023-08-01T07:06:14;6.17;;;4.33;;
13408;SDS011;6775;49.574;11.170;2023-08-01T07:08:41;6.70;;;4.70;;
13408;SDS011;6775;49.574;11.170;2023-08-01T07:11:10;6.47;;;4.37;;
13408;SDS011;6775;49.574;11.170;2023-08-01T07:13:38;4.30;;;3.70;;
13408;SDS011;6775;49.574;11.170;2023-08-01T07:16:06;7.33;;;3.90;;
13408;SDS011;6775;49.574;11.170;2023-08-01T07:18:34;7.50;;;4.63;;
13408;SDS011;6775;49.574;11.170;2023-08-01T07:21:02;7.10;;;4.20;;
13408;SDS011;6775;49.574;11.170;2023-08-01T07:23:33;5.50;;;3.80;;
13408;SDS011;6775;49.574;11.170;2023-08-01T07:26:02;5.50;;;4.07;;
13408;SDS011;6775;49.574;11.170;2023-08-01T07:28:30;6.30;;;3.83;;
13408;SDS011;6775;49.574;11.170;2023-08-01T07:30:58;8.60;;;4.47;;
13408;SDS011;6775;49.574;11.170;2023-08-01T07:33:27;6.23;;;4.03;;
13408;SDS011;6775;49.574;11.170;2023-08-01T07:35:55;4.57;;;3.83;;
13408;SDS011;6775;49.574;11.170;2023-08-01T07:38:24;6.57;;;3.87;;
13408;SDS011;6775;49.574;11.170;2023-08-01T07:40:54;5.07;;;3.50;;
13408;SDS011;6775;49.574;11.170;2023-08-01T07:43:23;4.20;;;3.43;;
13408;SDS011;6775;49.574;11.170;2023-08-01T07:45:55;5.50;;;3.50;;
13408;SDS011;6775;49.574;11.170;2023-08-01T07:48:24;3.80;;;3.37;;
13408;SDS011;6775;49.574;11.170;2023-08-01T07:50:52;4.10;;;3.40;;
13408;SDS011;6775;49.574;11.170;2023-08-01T07:53:20;5.80;;;3.50;;
13408;SDS011;6775;49.574;11.170;2023-08-01T07:55:48;4.90;;;2.70;;
13408;SDS011;6775;49.574;11.170;2023-08-01T07:58:17;3.77;;;3.33;;
13408;SDS011;6775;49.574;11.170;2023-08-01T08:00:45;5.50;;;3.23;;
13408;SDS011;6775;49.574;11.170;2023-08-01T08:03:14;5.70;;;3.20;;
13408;SDS011;6775;49.574;11.170;2023-08-01T08:05:42;6.07;;;3.20;;
13408;SDS011;6775;49.574;11.170;2023-08-01T08:08:11;6.87;;;3.20;;
13408;SDS011;6775;49.574;11.170;2023-08-01T08:10:38;4.67;;;3.03;;
13408;SDS011;6775;49.574;11.170;2023-08-01T08:13:09;4.47;;;3.40;;
13408;SDS011;6775;49.574;11.170;2023-08-01T08:15:38;4.30;;;3.27;;
13408;SDS011;6775;49.574;11.170;2023-08-01T08:18:06;5.27;;;2.93;;
13408;SDS011;6775;49.574;11.170;2023-08-01T08:20:40;5.43;;;3.27;;
13408;SDS011;6775;49.574;11.170;2023-08-01T08:23:10;5.67;;;3.20;;
13408;SDS011;6775;49.574;11.170;2023-08-01T08:25:40;5.37;;;3.43;;
13408;SDS011;6775;49.574;11.170;2023-08-01T08:28:11;4.87;;;3.40;;
13408;SDS011;6775;49.574;11.170;2023-08-01T08:30:41;4.53;;;3.33;;
13408;SDS011;6775;49.574;11.170;2023-08-01T08:33:17;4.87;;;3.90;;
13408;SDS011;6775;49.574;11.170;2023-08-01T08:35:47;4.53;;;3.63;;
13408;SDS011;6775;49.574;11.170;2023-08-01T08:38:16;6.13;;;3.70;;
13408;SDS011;6775;49.574;11.170;2023-08-01T08:40:48;6.10;;;4.10;;
13408;SDS011;6775;49.574;11.170;2023-08-01T08:43:29;3.33;;;2.10;;
13408;SDS011;6775;49.574;11.170;2023-08-01T08:46:00;3.83;;;2.00;;
13408;SDS011;6775;49.574;11.170;2023-08-01T08:48:30;3.77;;;2.40;;
13408;SDS011;6775;49.574;11.170;2023-08-01T08:51:00;4.03;;;2.37;;
13408;SDS011;6775;49.574;11.170;2023-08-01T08:53:30;5.33;;;3.07;;
13408;SDS011;6775;49.574;11.170;2023-08-01T08:55:59;5.03;;;3.40;;
13408;SDS011;6775;49.574;11.170;2023-08-01T08:58:29;4.93;;;3.20;;
13408;SDS011;6775;49.574;11.170;2023-08-01T09:01:00;7.03;;;3.40;;
13408;SDS011;6775;49.574;11.170;2023-08-01T09:03:29;5.90;;;3.60;;
13408;SDS011;6775;49.574;11.170;2023-08-01T09:05:59;5.33;;;3.27;;
13408;SDS011;6775;49.574;11.170;2023-08-01T09:08:35;4.95;;;3.88;;
13408;SDS011;6775;49.574;11.170;2023-08-01T09:11:06;4.53;;;3.37;;
13408;SDS011;6775;49.574;11.170;2023-08-01T09:13:34;4.63;;;3.30;;
13408;SDS011;6775;49.574;11.170;2023-08-01T09:16:04;4.77;;;3.40;;
13408;SDS011;6775;49.574;11.170;2023-08-01T09:18:33;5.63;;;3.80;;
13408;SDS011;6775;49.574;11.170;2023-08-01T09:21:01;5.40;;;3.60;;
13408;SDS011;6775;49.574;11.170;2023-08-01T09:23:30;4.87;;;3.40;;
13408;SDS011;6775;49.574;11.170;2023-08-01T09:25:58;5.30;;;3.60;;
13408;SDS011;6775;49.574;11.170;2023-08-01T09:28:26;5.07;;;3.53;;
13408;SDS011;6775;49.574;11.170;2023-08-01T09:30:55;6.23;;;3.90;;
13408;SDS011;6775;49.574;11.170;2023-08-01T09:33:25;7.53;;;3.83;;
13408;SDS011;6775;49.574;11.170;2023-08-01T09:36:04;5.57;;;3.63;;
13408;SDS011;6775;49.574;11.170;2023-08-01T09:38:33;5.60;;;3.03;;
13408;SDS011;6775;49.574;11.170;2023-08-01T09:41:02;7.33;;;4.47;;
13408;SDS011;6775;49.574;11.170;2023-08-01T09:43:34;6.27;;;3.80;;
13408;SDS011;6775;49.574;11.170;2023-08-01T09:46:06;5.37;;;3.57;;
13408;SDS011;6775;49.574;11.170;2023-08-01T09:48:35;5.97;;;3.50;;
13408;SDS011;6775;49.574;11.170;2023-08-01T09:51:07;5.57;;;3.70;;
13408;SDS011;6775;49.574;11.170;2023-08-01T09:53:46;5.43;;;3.30;;
13408;SDS011;6775;49.574;11.170;2023-08-01T09:56:17;5.60;;;3.53;;
13408;SDS011;6775;49.574;11.170;2023-08-01T09:58:48;5.33;;;3.20;;
13408;SDS011;6775;49.574;11.170;2023-08-01T10:01:17;5.47;;;3.60;;
13408;SDS011;6775;49.574;11.170;2023-08-01T10:03:49;5.87;;;3.70;;
13408;SDS011;6775;49.574;11.170;2023-08-01T10:06:20;5.93;;;3.80;;
13408;SDS011;6775;49.574;11.170;2023-08-01T10:08:51;6.30;;;3.53;;
13408;SDS011;6775;49.574;11.170;2023-08-01T10:11:20;6.20;;;4.37;;
13408;SDS011;6775;49.574;11.170;2023-08-01T10:13:50;4.70;;;3.30;;
13408;SDS011;6775;49.574;11.170;2023-08-01T10:16:18;5.53;;;3.43;;
13408;SDS011;6775;49.574;11.170;2023-08-01T10:18:46;4.23;;;3.37;;
13408;SDS011;6775;49.574;11.170;2023-08-01T10:21:16;5.20;;;3.37;;
13408;SDS011;6775;49.574;11.170;2023-08-01T10:23:47;5.70;;;3.23;;
13408;SDS011;6775;49.574;11.170;2023-08-01T10:26:16;4.00;;;3.10;;
13408;SDS011;6775;49.574;11.170;2023-08-01T10:28:49;3.50;;;2.87;;
13408;SDS011;6775;49.574;11.170;2023-08-01T10:31:19;3.93;;;3.27;;
13408;SDS011;6775;49.574;11.170;2023-08-01T10:33:50;3.97;;;2.83;;
13408;SDS011;6775;49.574;11.170;2023-08-01T10:36:19;3.57;;;2.83;;
13408;SDS011;6775;49.574;11.170;2023-08-01T10:38:50;4.80;;;2.70;;
13408;SDS011;6775;49.574;11.170;2023-08-01T10:41:26;4.17;;;2.73;;
13408;SDS011;6775;49.574;11.170;2023-08-01T10:44:05;3.83;;;2.93;;
13408;SDS011;6775;49.574;11.170;2023-08-01T10:46:45;3.90;;;2.67;;
13408;SDS011;6775;49.574;11.170;2023-08-01T10:49:16;3.87;;;2.87;;
13408;SDS011;6775;49.574;11.170;2023-08-01T10:51:45;4.53;;;3.03;;
13408;SDS011;6775;49.574;11.170;2023-08-01T10:54:20;5.00;;;3.03;;
13408;SDS011;6775;49.574;11.170;2023-08-01T10:56:50;3.60;;;2.63;;
13408;SDS011;6775;49.574;11.170;2023-08-01T10:59:21;3.53;;;2.60;;
13408;SDS011;6775;49.574;11.170;2023-08-01T11:01:50;3.33;;;2.20;;
13408;SDS011;6775;49.574;11.170;2023-08-01T11:04:22;3.57;;;2.73;;
13408;SDS011;6775;49.574;11.170;2023-08-01T11:06:51;2.00;;;1.77;;
13408;SDS011;6775;49.574;11.170;2023-08-01T11:09:23;2.03;;;1.83;;
13408;SDS011;6775;49.574;11.170;2023-08-01T11:11:54;2.10;;;1.83;;
13408;SDS011;6775;49.574;11.170;2023-08-01T11:14:27;2.90;;;1.90;;
13408;SDS011;6775;49.574;11.170;2023-08-01T11:16:56;2.17;;;1.83;;
13408;SDS011;6775;49.574;11.170;2023-08-01T11:19:28;2.30;;;1.67;;
13408;SDS011;6775;49.574;11.170;2023-08-01T11:21:57;2.60;;;1.70;;
13408;SDS011;6775;49.574;11.170;2023-08-01T11:24:26;2.97;;;1.80;;
13408;SDS011;6775;49.574;11.170;2023-08-01T11:26:54;1.53;;;1.33;;
13408;SDS011;6775;49.574;11.170;2023-08-01T11:29:22;1.67;;;1.57;;
13408;SDS011;6775;49.574;11.170;2023-08-01T11:31:53;2.30;;;1.50;;
13408;SDS011;6775;49.574;11.170;2023-08-01T11:34:23;3.57;;;1.80;;
13408;SDS011;6775;49.574;11.170;2023-08-01T11:36:53;1.77;;;1.60;;
13408;SDS011;6775;49.574;11.170;2023-08-01T11:39:21;2.40;;;1.60;;
13408;SDS011;6775;49.574;11.170;2023-08-01T11:41:49;1.63;;;1.43;;
13408;SDS011;6775;49.574;11.170;2023-08-01T11:44:18;2.37;;;1.40;;
13408;SDS011;6775;49.574;11.170;2023-08-01T11:46:51;1.57;;;1.20;;
13408;SDS011;6775;49.574;11.170;2023-08-01T11:49:19;3.00;;;1.63;;
13408;SDS011;6775;49.574;11.170;2023-08-01T11:51:47;3.37;;;1.73;;
13408;SDS011;6775;49.574;11.170;2023-08-01T11:54:17;2.20;;;1.53;;
13408;SDS011;6775;49.574;11.170;2023-08-01T11:56:46;1.60;;;1.20;;
13408;SDS011;6775;49.574;11.170;2023-08-01T11:59:14;2.63;;;1.37;;
13408;SDS011;6775;49.574;11.170;2023-08-01T12:01:45;1.17;;;0.90;;
13408;SDS011;6775;49.574;11.170;2023-08-01T12:04:23;1.10;;;0.90;;
13408;SDS011;6775;49.574;11.170;2023-08-01T12:06:52;0.87;;;0.80;;
13408;SDS011;6775;49.574;11.170;2023-08-01T12:09:23;1.83;;;1.00;;
13408;SDS011;6775;49.574;11.170;2023-08-01T12:11:57;1.37;;;0.90;;
13408;SDS011;6775;49.574;11.170;2023-08-01T12:14:26;0.77;;;0.77;;
13408;SDS011;6775;49.574;11.170;2023-08-01T12:16:55;1.00;;;0.90;;
13408;SDS011;6775;49.574;11.170;2023-08-01T12:19:23;0.87;;;0.80;;
13408;SDS011;6775;49.574;11.170;2023-08-01T12:21:51;1.80;;;0.80;;
13408;SDS011;6775;49.574;11.170;2023-08-01T12:24:19;0.80;;;0.80;;
13408;SDS011;6775;49.574;11.170;2023-08-01T12:26:48;1.00;;;0.60;;
13408;SDS011;6775;49.574;11.170;2023-08-01T12:29:16;0.87;;;0.77;;
13408;SDS011;6775;49.574;11.170;2023-08-01T12:31:44;0.77;;;0.77;;
13408;SDS011;6775;49.574;11.170;2023-08-01T12:34:13;0.90;;;0.77;;
13408;SDS011;6775;49.574;11.170;2023-08-01T12:36:41;1.10;;;0.77;;
13408;SDS011;6775;49.574;11.170;2023-08-01T12:39:09;0.80;;;0.77;;
13408;SDS011;6775;49.574;11.170;2023-08-01T12:41:38;0.70;;;0.70;;
13408;SDS011;6775;49.574;11.170;2023-08-01T12:44:07;1.50;;;0.90;;
13408;SDS011;6775;49.574;11.170;2023-08-01T12:46:35;1.13;;;0.80;;
13408;SDS011;6775;49.574;11.170;2023-08-01T12:49:05;1.17;;;0.70;;
13408;SDS011;6775;49.574;11.170;2023-08-01T12:51:33;1.13;;;0.80;;
13408;SDS011;6775;49.574;11.170;2023-08-01T12:54:01;0.80;;;0.80;;
13408;SDS011;6775;49.574;11.170;2023-08-01T12:56:30;0.70;;;0.70;;
13408;SDS011;6775;49.574;11.170;2023-08-01T12:58:58;2.23;;;0.93;;
13408;SDS011;6775;49.574;11.170;2023-08-01T13:01:27;1.70;;;0.87;;
13408;SDS011;6775;49.574;11.170;2023-08-01T13:03:55;0.97;;;0.87;;
13408;SDS011;6775;49.574;11.170;2023-08-01T13:06:23;0.70;;;0.70;;
13408;SDS011;6775;49.574;11.170;2023-08-01T13:08:51;0.93;;;0.70;;
13408;SDS011;6775;49.574;11.170;2023-08-01T13:11:20;0.80;;;0.70;;
13408;SDS011;6775;49.574;11.170;2023-08-01T13:13:48;0.80;;;0.80;;
13408;SDS011;6775;49.574;11.170;2023-08-01T13:16:16;1.13;;;0.73;;
13408;SDS011;6775;49.574;11.170;2023-08-01T13:18:45;1.27;;;0.60;;
13408;SDS011;6775;49.574;11.170;2023-08-01T13:21:14;1.13;;;0.60;;
13408;SDS011;6775;49.574;11.170;2023-08-01T13:23:42;0.57;;;0.57;;
13408;SDS011;6775;49.574;11.170;2023-08-01T13:26:10;0.70;;;0.60;;
13408;SDS011;6775;49.574;11.170;2023-08-01T13:28:38;0.97;;;0.90;;
13408;SDS011;6775;49.574;11.170;2023-08-01T13:31:06;1.50;;;0.80;;
13408;SDS011;6775;49.574;11.170;2023-08-01T13:33:34;1.07;;;0.90;;
13408;SDS011;6775;49.574;11.170;2023-08-01T13:36:04;1.50;;;0.80;;
13408;SDS011;6775;49.574;11.170;2023-08-01T13:38:32;1.43;;;0.90;;
13408;SDS011;6775;49.574;11.170;2023-08-01T13:41:00;1.20;;;0.90;;
13408;SDS011;6775;49.574;11.170;2023-08-01T13:43:31;1.67;;;0.70;;
13408;SDS011;6775;49.574;11.170;2023-08-01T13:45:59;1.77;;;0.83;;
13408;SDS011;6775;49.574;11.170;2023-08-01T13:48:30;0.90;;;0.60;;
13408;SDS011;6775;49.574;11.170;2023-08-01T13:50:58;0.80;;;0.80;;
13408;SDS011;6775;49.574;11.170;2023-08-01T13:53:28;0.70;;;0.70;;
13408;SDS011;6775;49.574;11.170;2023-08-01T13:55:56;1.17;;;0.83;;
13408;SDS011;6775;49.574;11.170;2023-08-01T13:58:24;1.20;;;0.90;;
13408;SDS011;6775;49.574;11.170;2023-08-01T14:00:52;2.50;;;0.80;;
13408;SDS011;6775;49.574;11.170;2023-08-01T14:03:20;1.00;;;0.90;;
13408;SDS011;6775;49.574;11.170;2023-08-01T14:05:48;1.00;;;0.90;;
13408;SDS011;6775;49.574;11.170;2023-08-01T14:08:16;2.83;;;0.77;;
13408;SDS011;6775;49.574;11.170;2023-08-01T14:10:46;0.57;;;0.57;;
13408;SDS011;6775;49.574;11.170;2023-08-01T14:13:14;1.47;;;0.80;;
13408;SDS011;6775;49.574;11.170;2023-08-01T14:15:42;1.37;;;0.77;;
13408;SDS011;6775;49.574;11.170;2023-08-01T14:18:10;0.80;;;0.80;;
13408;SDS011;6775;49.574;11.170;2023-08-01T14:20:38;0.70;;;0.70;;
13408;SDS011;6775;49.574;11.170;2023-08-01T14:23:06;1.80;;;0.87;;
13408;SDS011;6775;49.574;11.170;2023-08-01T14:25:35;2.03;;;0.70;;
13408;SDS011;6775;49.574;11.170;2023-08-01T14:28:04;0.80;;;0.80;;
13408;SDS011;6775;49.574;11.170;2023-08-01T14:30:33;2.07;;;0.93;;
13408;SDS011;6775;49.574;11.170;2023-08-01T14:33:01;0.80;;;0.80;;
13408;SDS011;6775;49.574;11.170;2023-08-01T14:35:31;0.83;;;0.70;;
13408;SDS011;6775;49.574;11.170;2023-08-01T14:38:00;1.40;;;0.90;;
13408;SDS011;6775;49.574;11.170;2023-08-01T14:40:29;0.97;;;0.70;;
13408;SDS011;6775;49.574;11.170;2023-08-01T14:42:57;0.90;;;0.63;;
13408;SDS011;6775;49.574;11.170;2023-08-01T14:45:27;0.70;;;0.70;;
13408;SDS011;6775;49.574;11.170;2023-08-01T14:47:55;1.60;;;0.83;;
13408;SDS011;6775;49.574;11.170;2023-08-01T14:50:23;2.63;;;0.60;;
13408;SDS011;6775;49.574;11.170;2023-08-01T14:52:51;0.87;;;0.50;;
13408;SDS011;6775;49.574;11.170;2023-08-01T14:55:19;0.77;;;0.60;;
13408;SDS011;6775;49.574;11.170;2023-08-01T14:57:47;0.40;;;0.40;;